Time;durP1;ratioP1;P1;durP2;ratioP2;P2;SDS_P1;SDS_P2;PMS_P1;PMS_P2;Temp;Humidity;BMP_temperature;BMP_pressure;BME280_temperature;BME280_humidity;BME280_pressure;Samples;Min_cycle;Max_cycle;Signal;HPM_P1;HPM_P2
2021/12/01 00:00:48;;;;;;;;;;;10.30;99.90;;;;;;5008692;28;19996;-61
2021/12/01 00:03:13;;;;;;;;;;;10.30;99.90;;;;;;5008385;28;19924;-60
2021/12/01 00:05:39;;;;;;;;;;;10.30;99.90;;;;;;5015908;28;19941;-60
2021/12/01 00:08:04;;;;;;;;;;;10.30;99.90;;;;;;5017626;28;20333;-61
2021/12/01 00:10:34;;;;;;;;;;;10.30;99.90;;;;;;5009244;28;19910;-61
2021/12/01 00:13:00;;;;;;;;;;;10.30;99.90;;;;;;5010836;28;19910;-60
2021/12/01 00:15:26;;;;;;;;;;;10.40;99.90;;;;;;5010657;28;20241;-61
2021/12/01 00:17:51;;;;;;;;;;;10.40;99.90;;;;;;5010154;28;20381;-64
2021/12/01 00:20:17;;;;;;;;;;;10.40;99.90;;;;;;5010038;28;20209;-61
2021/12/01 00:22:43;;;;;;;;;;;10.40;99.90;;;;;;5008372;28;19956;-60
2021/12/01 00:25:10;;;;;;;;;;;10.40;99.90;;;;;;5008260;28;20506;-60
2021/12/01 00:27:36;;;;;;;;;;;10.40;99.90;;;;;;5008516;28;19940;-60
2021/12/01 00:30:02;;;;;;;;;;;10.40;99.90;;;;;;5008902;28;20401;-60
2021/12/01 00:32:28;;;;;;;;;;;10.40;99.90;;;;;;5009398;28;19909;-61
2021/12/01 00:34:53;;;;;;;;;;;10.30;99.90;;;;;;5010346;28;19921;-60
2021/12/01 00:37:19;;;;;;;;;;;10.30;99.90;;;;;;5009530;28;19917;-68
2021/12/01 00:39:45;;;;;;;;;;;10.30;99.90;;;;;;5009673;28;19909;-62
2021/12/01 00:42:11;;;;;;;;;;;10.30;99.90;;;;;;5009361;28;19917;-61
2021/12/01 00:44:45;;;;;;;;;;;10.30;99.90;;;;;;5009473;28;19909;-64
2021/12/01 00:47:12;;;;;;;;;;;10.30;99.90;;;;;;5009200;28;19913;-61
2021/12/01 00:49:38;;;;;;;;;;;10.30;99.90;;;;;;5008532;28;20382;-59
2021/12/01 00:52:03;;;;;;;;;;;10.30;99.90;;;;;;5008572;28;19933;-59
2021/12/01 00:54:29;;;;;;;;;;;10.30;99.90;;;;;;5007748;28;19937;-60
2021/12/01 00:56:54;;;;;;;;;;;10.30;99.90;;;;;;5007376;28;19913;-60
2021/12/01 00:59:20;;;;;;;;;;;10.30;99.90;;;;;;5008095;28;20121;-62
2021/12/01 01:01:46;;;;;;;;;;;10.30;99.90;;;;;;5023718;28;20012;-64
2021/12/01 01:04:11;;;;;;;;;;;10.30;99.90;;;;;;5008440;28;19968;-61
2021/12/01 01:06:37;;;;;;;;;;;10.30;99.90;;;;;;5017157;28;20095;-62
2021/12/01 01:09:05;;;;;;;;;;;10.30;99.90;;;;;;5008231;28;20273;-61
2021/12/01 01:18:05;;;;;;;;;;;10.20;99.90;;;;;;5001763;28;19924;-62
2021/12/01 01:19:59;;;;;;;;;;;10.30;99.90;;;;;;5007190;28;19916;-61
2021/12/01 01:22:25;;;;;;;;;;;10.30;99.90;;;;;;5013480;28;19917;-62
2021/12/01 01:24:50;;;;;;;;;;;10.20;99.90;;;;;;5016033;28;19997;-64
2021/12/01 01:27:16;;;;;;;;;;;10.20;99.90;;;;;;5008377;28;19924;-61
2021/12/01 01:29:41;;;;;;;;;;;10.20;99.90;;;;;;5008092;28;20395;-64
2021/12/01 01:32:07;;;;;;;;;;;10.20;99.90;;;;;;5008756;28;20003;-61
2021/12/01 01:34:34;;;;;;;;;;;10.10;99.90;;;;;;5008344;28;19956;-69
2021/12/01 01:36:59;;;;;;;;;;;10.10;99.90;;;;;;5008294;28;20449;-67
2021/12/01 01:39:25;;;;;;;;;;;10.10;99.90;;;;;;5007896;28;19909;-63
2021/12/01 01:41:52;;;;;;;;;;;10.10;99.90;;;;;;5008422;28;20154;-63
2021/12/01 01:44:17;;;;;;;;;;;10.00;99.90;;;;;;5016274;28;20317;-61
2021/12/01 01:46:43;;;;;;;;;;;10.00;99.90;;;;;;5022595;28;19920;-61
2021/12/01 01:49:11;;;;;;;;;;;10.00;99.90;;;;;;5005547;28;20416;-65
2021/12/01 01:51:37;;;;;;;;;;;10.00;99.90;;;;;;5006740;28;20389;-68
2021/12/01 01:54:03;;;;;;;;;;;9.90;99.90;;;;;;5006789;28;19913;-62
2021/12/01 01:56:28;;;;;;;;;;;9.90;99.90;;;;;;5006756;28;19932;-63
2021/12/01 01:58:54;;;;;;;;;;;9.90;99.90;;;;;;5023457;28;19921;-63
2021/12/01 02:04:05;;;;;;;;;;;9.90;99.90;;;;;;5015742;28;19921;-62
2021/12/01 02:06:31;;;;;;;;;;;9.80;99.90;;;;;;5023725;28;20305;-64
2021/12/01 02:08:58;;;;;;;;;;;9.80;99.90;;;;;;5013858;28;20016;-62
2021/12/01 02:11:25;;;;;;;;;;;9.80;99.90;;;;;;5010797;28;19921;-65
2021/12/01 02:13:51;;;;;;;;;;;9.80;99.90;;;;;;5010629;28;19909;-61
2021/12/01 02:16:17;;;;;;;;;;;9.80;99.90;;;;;;5010377;28;19913;-62
2021/12/01 02:18:43;;;;;;;;;;;9.80;99.90;;;;;;5010046;28;19917;-60
2021/12/01 02:21:28;;;;;;;;;;;9.80;99.90;;;;;;5010383;28;19910;-61
2021/12/01 02:23:58;;;;;;;;;;;9.80;99.90;;;;;;5009952;28;19917;-62
2021/12/01 02:26:24;;;;;;;;;;;9.70;99.90;;;;;;5010020;28;19909;-64
2021/12/01 02:28:51;;;;;;;;;;;9.70;99.90;;;;;;5010348;28;19972;-66
2021/12/01 02:31:17;;;;;;;;;;;9.70;99.90;;;;;;4995987;28;19949;-66
2021/12/01 02:33:43;;;;;;;;;;;9.70;99.90;;;;;;5017911;28;20140;-67
2021/12/01 02:36:12;;;;;;;;;;;9.60;99.90;;;;;;5024407;28;19910;-63
2021/12/01 02:38:40;;;;;;;;;;;9.60;99.90;;;;;;5022181;28;19914;-60
2021/12/01 02:41:06;;;;;;;;;;;9.60;99.90;;;;;;5021784;28;19920;-68
2021/12/01 02:43:32;;;;;;;;;;;9.60;99.90;;;;;;5032658;28;19960;-65
2021/12/01 02:45:57;;;;;;;;;;;9.60;99.90;;;;;;5012992;28;19913;-63
2021/12/01 02:48:23;;;;;;;;;;;9.60;99.90;;;;;;5009892;28;19971;-68
2021/12/01 02:50:49;;;;;;;;;;;9.60;99.90;;;;;;5010487;28;19917;-62
2021/12/01 02:53:16;;;;;;;;;;;9.50;99.90;;;;;;5010343;28;20454;-63
2021/12/01 02:55:49;;;;;;;;;;;9.60;99.90;;;;;;5010219;28;19910;-61
2021/12/01 02:58:16;;;;;;;;;;;9.60;99.90;;;;;;5010080;28;19944;-61
2021/12/01 03:00:41;;;;;;;;;;;9.60;99.90;;;;;;5009620;28;20008;-67
2021/12/01 03:03:07;;;;;;;;;;;9.50;99.90;;;;;;5010302;28;20358;-62
2021/12/01 03:05:32;;;;;;;;;;;9.50;99.90;;;;;;5020145;28;19917;-62
2021/12/01 03:07:58;;;;;;;;;;;9.50;99.90;;;;;;5011320;28;19918;-71
2021/12/01 03:10:23;;;;;;;;;;;9.50;99.90;;;;;;5009837;28;19909;-60
2021/12/01 03:12:49;;;;;;;;;;;9.50;99.90;;;;;;5009141;28;19959;-64
2021/12/01 03:15:19;;;;;;;;;;;9.50;99.90;;;;;;5009351;28;19910;-59
2021/12/01 03:17:45;;;;;;;;;;;9.50;99.90;;;;;;5009230;28;20321;-63
2021/12/01 03:20:11;;;;;;;;;;;9.50;99.90;;;;;;5016955;28;19913;-65
2021/12/01 03:22:36;;;;;;;;;;;9.40;99.90;;;;;;5021684;28;19948;-63
2021/12/01 03:25:07;;;;;;;;;;;9.50;99.90;;;;;;5021677;28;19909;-60
2021/12/01 03:27:32;;;;;;;;;;;9.40;99.90;;;;;;5010480;28;20297;-65
2021/12/01 03:29:58;;;;;;;;;;;9.40;99.90;;;;;;5010795;28;19920;-65
2021/12/01 03:32:23;;;;;;;;;;;9.40;99.90;;;;;;5010456;28;20274;-64
2021/12/01 03:34:49;;;;;;;;;;;9.40;99.90;;;;;;5009727;28;19910;-62
2021/12/01 03:37:14;;;;;;;;;;;9.40;99.90;;;;;;5008789;28;19932;-67
2021/12/01 03:39:40;;;;;;;;;;;9.40;99.90;;;;;;5009099;28;19917;-63
2021/12/01 03:42:05;;;;;;;;;;;9.40;99.90;;;;;;5008999;28;19961;-67
2021/12/01 03:44:32;;;;;;;;;;;9.40;99.90;;;;;;5010543;28;19940;-65
2021/12/01 03:46:57;;;;;;;;;;;9.40;99.90;;;;;;5017982;28;20007;-65
2021/12/01 03:49:23;;;;;;;;;;;9.40;99.90;;;;;;5039416;28;20212;-62
2021/12/01 03:51:48;;;;;;;;;;;9.30;99.90;;;;;;5042574;28;20004;-62
2021/12/01 03:54:14;;;;;;;;;;;9.40;99.90;;;;;;5037743;28;19913;-63
2021/12/01 03:56:40;;;;;;;;;;;9.40;99.90;;;;;;5022317;28;19982;-63
2021/12/01 03:59:06;;;;;;;;;;;9.30;99.90;;;;;;5017475;28;19910;-64
2021/12/01 04:01:32;;;;;;;;;;;9.40;99.90;;;;;;5026783;28;19923;-63
2021/12/01 04:04:00;;;;;;;;;;;9.30;99.90;;;;;;5014146;28;19925;-63
2021/12/01 04:06:27;;;;;;;;;;;9.30;99.90;;;;;;5023971;28;19909;-66
2021/12/01 04:08:53;;;;;;;;;;;9.30;99.90;;;;;;5024875;28;19913;-62
2021/12/01 04:11:18;;;;;;;;;;;9.30;99.90;;;;;;5024307;28;20481;-62
2021/12/01 04:13:44;;;;;;;;;;;9.30;99.90;;;;;;5023666;28;20007;-64
2021/12/01 04:16:09;;;;;;;;;;;9.20;99.90;;;;;;5029094;28;19980;-64
2021/12/01 04:18:35;;;;;;;;;;;9.20;99.90;;;;;;5043183;28;19940;-61
2021/12/01 04:21:00;;;;;;;;;;;9.30;99.90;;;;;;5008110;28;20333;-65
2021/12/01 04:23:26;;;;;;;;;;;9.20;99.90;;;;;;5024594;28;19921;-69
2021/12/01 04:25:52;;;;;;;;;;;9.30;99.90;;;;;;5027997;28;20365;-65
2021/12/01 04:28:17;;;;;;;;;;;9.30;99.90;;;;;;5028453;28;19909;-63
2021/12/01 04:30:43;;;;;;;;;;;9.20;99.90;;;;;;5028077;28;20349;-64
2021/12/01 04:33:08;;;;;;;;;;;9.20;99.90;;;;;;5010691;28;19910;-62
2021/12/01 04:35:34;;;;;;;;;;;9.20;99.90;;;;;;5007999;28;20209;-68
2021/12/01 04:38:00;;;;;;;;;;;9.20;99.90;;;;;;5008319;28;19937;-69
2021/12/01 04:40:26;;;;;;;;;;;9.10;99.90;;;;;;5007584;28;20621;-66
2021/12/01 04:42:51;;;;;;;;;;;9.10;99.90;;;;;;5007878;28;20008;-63
2021/12/01 04:45:19;;;;;;;;;;;9.10;99.90;;;;;;5008142;28;19920;-64
2021/12/01 04:47:46;;;;;;;;;;;9.10;99.90;;;;;;5023259;28;20168;-62
2021/12/01 04:50:12;;;;;;;;;;;9.10;99.90;;;;;;5009061;28;19910;-62
2021/12/01 04:52:38;;;;;;;;;;;9.10;99.90;;;;;;5009490;28;20088;-62
2021/12/01 04:55:04;;;;;;;;;;;9.10;99.90;;;;;;5009619;28;19913;-64
2021/12/01 04:57:30;;;;;;;;;;;9.10;99.90;;;;;;5019121;28;19992;-64
2021/12/01 04:59:55;;;;;;;;;;;9.10;99.90;;;;;;5030531;28;19999;-60
2021/12/01 05:02:21;;;;;;;;;;;9.10;99.90;;;;;;5020387;28;20294;-63
2021/12/01 05:04:46;;;;;;;;;;;9.10;99.90;;;;;;5022154;28;19917;-65
2021/12/01 05:07:13;;;;;;;;;;;9.10;99.90;;;;;;5014793;28;20080;-63
2021/12/01 05:09:39;;;;;;;;;;;9.10;99.90;;;;;;5005915;28;19910;-60
2021/12/01 05:12:07;;;;;;;;;;;9.10;99.90;;;;;;5006387;28;19919;-65
2021/12/01 05:14:34;;;;;;;;;;;9.10;99.90;;;;;;5005671;28;19909;-65
2021/12/01 05:16:59;;;;;;;;;;;9.10;99.90;;;;;;5005844;28;20012;-65
2021/12/01 05:19:25;;;;;;;;;;;9.10;99.90;;;;;;5005755;28;19996;-61
2021/12/01 05:21:50;;;;;;;;;;;9.00;99.90;;;;;;5006448;28;20580;-65
2021/12/01 05:24:16;;;;;;;;;;;9.00;99.90;;;;;;5007489;28;20290;-63
2021/12/01 05:26:41;;;;;;;;;;;9.10;99.90;;;;;;5007976;28;19916;-67
2021/12/01 05:29:07;;;;;;;;;;;9.00;99.90;;;;;;5022794;28;20401;-66
2021/12/01 05:31:32;;;;;;;;;;;9.00;99.90;;;;;;5004181;28;19929;-68
2021/12/01 05:33:58;;;;;;;;;;;9.00;99.90;;;;;;4999942;28;19925;-65
2021/12/01 05:36:23;;;;;;;;;;;9.00;99.90;;;;;;5010022;28;20413;-69
2021/12/01 05:38:49;;;;;;;;;;;9.00;99.90;;;;;;5007856;28;19917;-64
2021/12/01 05:41:15;;;;;;;;;;;9.00;99.90;;;;;;5008561;28;19909;-61
2021/12/01 05:43:40;;;;;;;;;;;9.00;99.90;;;;;;5007927;28;20325;-60
2021/12/01 05:46:06;;;;;;;;;;;9.00;99.90;;;;;;5009199;28;19964;-64
2021/12/01 05:48:31;;;;;;;;;;;9.00;99.90;;;;;;5008009;28;19955;-61
2021/12/01 05:50:57;;;;;;;;;;;9.00;99.90;;;;;;5007399;28;19909;-67
2021/12/01 05:53:22;;;;;;;;;;;9.00;99.90;;;;;;5007641;28;19972;-64
2021/12/01 05:55:48;;;;;;;;;;;9.00;99.90;;;;;;5010169;28;19916;-62
2021/12/01 05:58:14;;;;;;;;;;;9.00;99.90;;;;;;5022889;28;19918;-61
2021/12/01 06:00:39;;;;;;;;;;;9.00;99.90;;;;;;5008695;28;19914;-65
2021/12/01 06:03:05;;;;;;;;;;;9.00;99.90;;;;;;5018923;28;19933;-63
2021/12/01 06:05:30;;;;;;;;;;;9.00;99.90;;;;;;5009813;28;19928;-61
2021/12/01 06:07:56;;;;;;;;;;;9.00;99.90;;;;;;5005629;28;19913;-63
2021/12/01 06:10:22;;;;;;;;;;;9.00;99.90;;;;;;5004423;28;19930;-70
2021/12/01 06:12:48;;;;;;;;;;;9.00;99.90;;;;;;5007353;28;19913;-65
2021/12/01 06:15:15;;;;;;;;;;;9.00;99.90;;;;;;5007448;28;19921;-64
2021/12/01 06:17:41;;;;;;;;;;;9.00;99.90;;;;;;5003118;28;20354;-62
2021/12/01 06:20:07;;;;;;;;;;;9.00;99.90;;;;;;5005008;28;20003;-66
2021/12/01 06:22:33;;;;;;;;;;;9.00;99.90;;;;;;5001001;28;20079;-66
2021/12/01 06:24:59;;;;;;;;;;;9.10;99.90;;;;;;5006044;28;19969;-60
2021/12/01 06:27:25;;;;;;;;;;;9.00;99.90;;;;;;5005598;28;19913;-66
2021/12/01 06:29:51;;;;;;;;;;;9.00;99.90;;;;;;5005157;28;19917;-67
2021/12/01 06:32:17;;;;;;;;;;;9.10;99.90;;;;;;5004392;28;20413;-66
2021/12/01 06:34:42;;;;;;;;;;;9.10;99.90;;;;;;5006124;28;19922;-70
2021/12/01 06:37:08;;;;;;;;;;;9.10;99.90;;;;;;5020982;28;19913;-68
2021/12/01 06:39:33;;;;;;;;;;;9.10;99.90;;;;;;5016326;28;20031;-62
2021/12/01 06:41:59;;;;;;;;;;;9.10;99.90;;;;;;5016094;28;19952;-63
2021/12/01 06:44:24;;;;;;;;;;;9.10;99.90;;;;;;5010021;28;20335;-61
2021/12/01 06:46:51;;;;;;;;;;;9.10;99.90;;;;;;5011340;28;19920;-61
2021/12/01 06:49:16;;;;;;;;;;;9.10;99.90;;;;;;5021026;28;20015;-65
2021/12/01 06:51:42;;;;;;;;;;;9.10;99.90;;;;;;5030138;28;20636;-62
2021/12/01 06:54:07;;;;;;;;;;;9.20;99.90;;;;;;5030650;28;19913;-61
2021/12/01 06:56:33;;;;;;;;;;;9.20;99.90;;;;;;5030287;28;20012;-62
2021/12/01 06:58:58;;;;;;;;;;;9.20;99.90;;;;;;5030628;28;19909;-62
2021/12/01 07:01:24;;;;;;;;;;;9.20;99.90;;;;;;5031239;28;19909;-64
2021/12/01 07:03:49;;;;;;;;;;;9.20;99.90;;;;;;5030004;28;19932;-61
2021/12/01 07:06:15;;;;;;;;;;;9.20;99.90;;;;;;5025757;28;20280;-64
2021/12/01 07:08:40;;;;;;;;;;;9.20;99.90;;;;;;5025026;28;20028;-64
2021/12/01 07:11:06;;;;;;;;;;;9.20;99.90;;;;;;5011617;28;19925;-61
2021/12/01 07:13:33;;;;;;;;;;;9.20;99.90;;;;;;5010287;28;20629;-61
2021/12/01 07:15:59;;;;;;;;;;;9.20;99.90;;;;;;5010596;28;19959;-61
2021/12/01 07:18:24;;;;;;;;;;;9.30;99.90;;;;;;5010600;28;20374;-68
2021/12/01 07:20:50;;;;;;;;;;;9.20;99.90;;;;;;5010444;28;19917;-63
2021/12/01 07:23:15;;;;;;;;;;;9.20;99.90;;;;;;5010558;28;19917;-64
2021/12/01 07:25:41;;;;;;;;;;;9.30;99.90;;;;;;5010515;28;20000;-61
2021/12/01 07:28:06;;;;;;;;;;;9.30;99.90;;;;;;5010290;28;19910;-61
2021/12/01 07:30:35;;;;;;;;;;;9.30;99.90;;;;;;5009948;28;19910;-63
2021/12/01 07:33:00;;;;;;;;;;;9.30;99.90;;;;;;5011647;28;19921;-63
2021/12/01 07:35:26;;;;;;;;;;;9.30;99.90;;;;;;5020809;28;19910;-63
2021/12/01 07:37:53;;;;;;;;;;;9.30;99.90;;;;;;5021109;28;19944;-65
2021/12/01 07:40:19;;;;;;;;;;;9.40;99.90;;;;;;5023264;28;19941;-63
2021/12/01 07:42:44;;;;;;;;;;;9.40;99.90;;;;;;5012955;28;19921;-62
2021/12/01 07:45:10;;;;;;;;;;;9.40;99.90;;;;;;5010786;28;20130;-60
2021/12/01 07:47:36;;;;;;;;;;;9.40;99.90;;;;;;5009968;28;19924;-67
2021/12/01 07:50:01;;;;;;;;;;;9.40;99.90;;;;;;5007719;28;20440;-62
2021/12/01 07:52:27;;;;;;;;;;;9.40;99.90;;;;;;5009704;28;20289;-63
2021/12/01 07:54:52;;;;;;;;;;;9.40;99.90;;;;;;5009418;28;19948;-63
2021/12/01 07:57:18;;;;;;;;;;;9.40;99.90;;;;;;5023243;28;19916;-62
2021/12/01 07:59:43;;;;;;;;;;;9.50;99.90;;;;;;5029247;28;19909;-69
2021/12/01 08:02:09;;;;;;;;;;;9.40;99.90;;;;;;5030709;28;19909;-70
2021/12/01 08:04:34;;;;;;;;;;;9.40;99.90;;;;;;5029061;28;20364;-66
2021/12/01 08:07:00;;;;;;;;;;;9.50;99.90;;;;;;5019229;28;19917;-69
2021/12/01 08:09:26;;;;;;;;;;;9.50;99.90;;;;;;5010208;28;19909;-64
2021/12/01 08:11:52;;;;;;;;;;;9.40;99.90;;;;;;5009028;28;20286;-63
2021/12/01 08:14:18;;;;;;;;;;;9.40;99.90;;;;;;5017180;28;20532;-60
2021/12/01 08:16:43;;;;;;;;;;;9.40;99.90;;;;;;5028256;28;19924;-61
2021/12/01 08:19:08;;;;;;;;;;;9.20;99.90;;;;;;5028634;28;19916;-62
2021/12/01 08:21:34;;;;;;;;;;;9.20;99.90;;;;;;5028825;28;19909;-60
2021/12/01 08:23:59;;;;;;;;;;;9.10;99.90;;;;;;5028572;28;20011;-60
2021/12/01 08:26:25;;;;;;;;;;;9.00;99.90;;;;;;5029395;28;20354;-68
2021/12/01 08:28:51;;;;;;;;;;;9.00;99.90;;;;;;5028375;28;20012;-61
2021/12/01 08:31:18;;;;;;;;;;;9.00;99.90;;;;;;5008703;28;19971;-61
2021/12/01 08:33:44;;;;;;;;;;;8.90;99.90;;;;;;5008863;28;19913;-62
2021/12/01 08:36:10;;;;;;;;;;;8.90;99.90;;;;;;5008926;28;19910;-60
2021/12/01 08:38:36;;;;;;;;;;;8.90;99.90;;;;;;5009299;28;20000;-63
2021/12/01 08:41:02;;;;;;;;;;;8.90;99.90;;;;;;5008697;28;20008;-61
2021/12/01 08:43:27;;;;;;;;;;;8.80;99.90;;;;;;5008634;28;19948;-62
2021/12/01 08:45:53;;;;;;;;;;;8.70;99.90;;;;;;5022509;28;19924;-61
2021/12/01 08:48:19;;;;;;;;;;;8.70;99.90;;;;;;5007194;28;20313;-60
2021/12/01 08:50:45;;;;;;;;;;;8.70;99.90;;;;;;5007054;28;20004;-63
2021/12/01 08:53:11;;;;;;;;;;;8.70;99.90;;;;;;5007024;28;20016;-60
2021/12/01 08:55:40;;;;;;;;;;;8.70;99.90;;;;;;5007870;28;20004;-62
2021/12/01 08:58:09;;;;;;;;;;;8.70;99.90;;;;;;5026255;28;19924;-61
2021/12/01 09:00:37;;;;;;;;;;;8.70;99.90;;;;;;5027594;28;19909;-60
2021/12/01 09:03:04;;;;;;;;;;;8.70;99.90;;;;;;5027875;28;19920;-61
2021/12/01 09:05:30;;;;;;;;;;;8.70;99.90;;;;;;5029031;28;20347;-61
2021/12/01 09:07:55;;;;;;;;;;;8.80;99.90;;;;;;5009510;28;19909;-60
2021/12/01 09:10:20;;;;;;;;;;;8.80;99.90;;;;;;5008063;28;19916;-61
2021/12/01 09:12:46;;;;;;;;;;;8.80;99.90;;;;;;5007686;28;20362;-60
2021/12/01 09:15:13;;;;;;;;;;;8.70;99.90;;;;;;5007967;28;20396;-60
2021/12/01 09:17:39;;;;;;;;;;;8.70;99.90;;;;;;5008159;28;19964;-64
2021/12/01 09:20:05;;;;;;;;;;;8.80;99.90;;;;;;5006687;28;20302;-59
2021/12/01 09:22:30;;;;;;;;;;;8.70;99.90;;;;;;5008005;28;19921;-61
2021/12/01 09:24:55;;;;;;;;;;;8.80;99.90;;;;;;5007338;28;20004;-60
2021/12/01 09:27:21;;;;;;;;;;;8.70;99.90;;;;;;5007606;28;19917;-61
2021/12/01 09:29:47;;;;;;;;;;;8.80;99.90;;;;;;5007297;28;19909;-60
2021/12/01 09:32:12;;;;;;;;;;;8.80;99.90;;;;;;5007970;28;20031;-60
2021/12/01 09:34:39;;;;;;;;;;;8.90;99.90;;;;;;5007916;28;20259;-61
2021/12/01 09:37:05;;;;;;;;;;;9.00;99.90;;;;;;5023222;28;19944;-64
2021/12/01 09:39:31;;;;;;;;;;;9.00;99.90;;;;;;5007527;28;19964;-63
2021/12/01 09:41:56;;;;;;;;;;;8.90;99.90;;;;;;5022752;28;19913;-60
2021/12/01 09:44:22;;;;;;;;;;;8.80;99.90;;;;;;5008148;28;19940;-61
2021/12/01 09:46:47;;;;;;;;;;;8.80;99.90;;;;;;5008947;28;20378;-63
2021/12/01 09:49:13;;;;;;;;;;;8.80;99.90;;;;;;5008846;28;19914;-63
2021/12/01 09:51:38;;;;;;;;;;;8.80;99.90;;;;;;5019504;28;19921;-62
2021/12/01 09:54:04;;;;;;;;;;;8.80;99.90;;;;;;5027753;28;19910;-60
2021/12/01 09:56:30;;;;;;;;;;;8.80;99.90;;;;;;5027869;28;19916;-63
2021/12/01 09:58:56;;;;;;;;;;;8.80;99.90;;;;;;5042763;28;20313;-63
2021/12/01 10:01:22;;;;;;;;;;;8.70;99.90;;;;;;5027384;28;19947;-62
2021/12/01 10:03:48;;;;;;;;;;;8.70;99.90;;;;;;5027071;28;20198;-62
2021/12/01 10:06:17;;;;;;;;;;;8.70;99.90;;;;;;5023235;28;19916;-60
2021/12/01 10:08:50;;;;;;;;;;;8.70;99.90;;;;;;5008193;28;20397;-64
2021/12/01 10:11:23;;;;;;;;;;;8.70;99.90;;;;;;5008119;28;19940;-63
2021/12/01 10:13:57;;;;;;;;;;;8.60;99.90;;;;;;5007591;28;19909;-65
2021/12/01 10:16:23;;;;;;;;;;;8.60;99.90;;;;;;5009225;28;19921;-63
2021/12/01 10:18:50;;;;;;;;;;;8.60;99.90;;;;;;5009823;28;19914;-63
2021/12/01 10:21:23;;;;;;;;;;;8.60;99.90;;;;;;5018253;28;19921;-62
2021/12/01 10:23:50;;;;;;;;;;;8.50;99.90;;;;;;5020346;28;19917;-63
2021/12/01 10:26:21;;;;;;;;;;;8.50;99.90;;;;;;5024644;28;19976;-61
2021/12/01 10:28:51;;;;;;;;;;;8.60;99.90;;;;;;5013473;28;19909;-63
2021/12/01 10:31:29;;;;;;;;;;;8.60;99.90;;;;;;5011210;28;19917;-61
2021/12/01 10:33:55;;;;;;;;;;;8.60;99.90;;;;;;5011327;28;19909;-61
2021/12/01 10:36:25;;;;;;;;;;;8.60;99.90;;;;;;5011764;28;19914;-63
2021/12/01 10:39:02;;;;;;;;;;;8.50;99.90;;;;;;5010628;28;19953;-61
2021/12/01 10:41:33;;;;;;;;;;;8.60;99.90;;;;;;5011421;28;19955;-62
2021/12/01 10:44:07;;;;;;;;;;;8.60;99.90;;;;;;5010493;28;19925;-63
2021/12/01 10:46:41;;;;;;;;;;;8.70;99.90;;;;;;5010341;28;19910;-62
2021/12/01 10:49:07;;;;;;;;;;;8.70;99.90;;;;;;5014758;28;19909;-62
2021/12/01 10:51:36;;;;;;;;;;;8.80;99.90;;;;;;5010869;28;20305;-65
2021/12/01 10:54:02;;;;;;;;;;;8.80;99.90;;;;;;5010817;28;19910;-63
2021/12/01 10:56:28;;;;;;;;;;;8.80;99.90;;;;;;5018758;28;20322;-65
2021/12/01 10:58:53;;;;;;;;;;;8.70;99.90;;;;;;5029014;28;20404;-66
2021/12/01 11:01:20;;;;;;;;;;;8.70;99.90;;;;;;5029450;28;19909;-65
2021/12/01 11:03:45;;;;;;;;;;;8.80;99.90;;;;;;5029628;28;19997;-70
2021/12/01 11:06:12;;;;;;;;;;;8.80;99.90;;;;;;5025716;28;20015;-66
2021/12/01 11:08:40;;;;;;;;;;;8.80;99.90;;;;;;5009345;28;19916;-68
2021/12/01 11:11:16;;;;;;;;;;;8.80;99.90;;;;;;5010861;28;19956;-69
2021/12/01 11:13:43;;;;;;;;;;;8.90;99.90;;;;;;5010679;28;19913;-67
2021/12/01 11:16:12;;;;;;;;;;;8.90;99.90;;;;;;5011775;28;20307;-67
2021/12/01 11:18:39;;;;;;;;;;;9.00;99.90;;;;;;5015743;28;20003;-70
2021/12/01 11:21:07;;;;;;;;;;;9.00;99.90;;;;;;5016244;28;19909;-68
2021/12/01 11:23:34;;;;;;;;;;;9.10;99.90;;;;;;5022768;28;20434;-67
2021/12/01 11:26:04;;;;;;;;;;;9.10;99.90;;;;;;5031332;28;19898;-69
2021/12/01 11:28:32;;;;;;;;;;;9.10;99.90;;;;;;5041685;28;19941;-67
2021/12/01 11:30:59;;;;;;;;;;;9.20;99.90;;;;;;5042861;28;19905;-69
2021/12/01 11:33:25;;;;;;;;;;;9.30;99.90;;;;;;5029303;28;20125;-68
2021/12/01 11:36:11;;;;;;;;;;;9.30;99.90;;;;;;5033607;28;19960;-68
2021/12/01 11:38:36;;;;;;;;;;;9.20;99.90;;;;;;5014736;28;20415;-70
2021/12/01 11:41:03;;;;;;;;;;;9.30;99.90;;;;;;5012679;28;19917;-69
2021/12/01 11:43:30;;;;;;;;;;;9.30;99.90;;;;;;5011803;28;19913;-71
2021/12/01 11:45:55;;;;;;;;;;;9.30;99.90;;;;;;5011095;28;19914;-69
2021/12/01 11:48:32;;;;;;;;;;;9.30;99.90;;;;;;5011155;28;20481;-70
2021/12/01 11:51:01;;;;;;;;;;;9.30;99.90;;;;;;5011026;28;19910;-72
2021/12/01 11:53:33;;;;;;;;;;;9.30;99.90;;;;;;5011182;28;19949;-69
2021/12/01 11:56:01;;;;;;;;;;;9.30;99.90;;;;;;5019757;28;19914;-67
2021/12/01 11:58:43;;;;;;;;;;;9.30;99.90;;;;;;5031590;28;20020;-69
2021/12/01 12:01:21;;;;;;;;;;;9.20;99.90;;;;;;5031108;28;19917;-67
2021/12/01 12:03:47;;;;;;;;;;;9.20;99.90;;;;;;5030447;28;19917;-69
2021/12/01 12:06:18;;;;;;;;;;;9.30;99.90;;;;;;5042076;28;19914;-71
2021/12/01 12:08:55;;;;;;;;;;;9.20;99.90;;;;;;5025276;28;20016;-68
2021/12/01 12:11:37;;;;;;;;;;;9.30;99.90;;;;;;5009358;28;20001;-71
2021/12/01 12:14:07;;;;;;;;;;;9.20;99.90;;;;;;5009511;28;19909;-68
2021/12/01 12:16:34;;;;;;;;;;;9.20;99.90;;;;;;5009932;28;19921;-68
2021/12/01 12:18:59;;;;;;;;;;;9.20;99.90;;;;;;5011823;28;19914;-70
2021/12/01 12:21:51;;;;;;;;;;;9.20;99.90;;;;;;5010373;28;19920;-70
2021/12/01 12:24:19;;;;;;;;;;;9.10;99.90;;;;;;5011889;28;19977;-70
2021/12/01 12:26:51;;;;;;;;;;;9.10;99.90;;;;;;5010848;28;20328;-69
2021/12/01 12:29:22;;;;;;;;;;;9.00;99.90;;;;;;5011818;28;19957;-69
2021/12/01 12:31:48;;;;;;;;;;;8.80;99.90;;;;;;5026687;28;20248;-71
2021/12/01 12:34:15;;;;;;;;;;;8.80;99.90;;;;;;5011086;28;19913;-69
2021/12/01 12:36:42;;;;;;;;;;;8.70;99.90;;;;;;5011880;28;20366;-69
2021/12/01 12:39:12;;;;;;;;;;;8.80;99.90;;;;;;5010385;28;20223;-69
2021/12/01 12:42:04;;;;;;;;;;;8.80;99.90;;;;;;5010916;28;19937;-71
2021/12/01 12:44:33;;;;;;;;;;;8.80;99.90;;;;;;5010867;28;20096;-70
2021/12/01 12:47:06;;;;;;;;;;;8.80;99.90;;;;;;5011407;28;19913;-71
2021/12/01 12:49:42;;;;;;;;;;;8.90;99.90;;;;;;5010441;28;19952;-71
2021/12/01 12:52:26;;;;;;;;;;;8.90;99.90;;;;;;5010687;28;19960;-68
2021/12/01 12:54:56;;;;;;;;;;;8.90;99.90;;;;;;5011247;28;19909;-70
2021/12/01 12:57:22;;;;;;;;;;;8.90;99.90;;;;;;5025029;28;20358;-71
2021/12/01 12:59:48;;;;;;;;;;;9.00;99.90;;;;;;5029534;28;19909;-71
2021/12/01 13:02:16;;;;;;;;;;;9.00;99.90;;;;;;5030121;28;19920;-69
2021/12/01 13:07:31;;;;;;;;;;;9.10;99.90;;;;;;5023121;28;19909;-69
2021/12/01 13:10:15;;;;;;;;;;;9.00;99.90;;;;;;5028217;28;20365;-69
2021/12/01 13:12:48;;;;;;;;;;;9.00;99.90;;;;;;5045539;28;19917;-70
2021/12/01 13:15:21;;;;;;;;;;;9.10;99.90;;;;;;5036255;28;20190;-71
2021/12/01 13:17:51;;;;;;;;;;;9.10;99.90;;;;;;5044310;28;19963;-71
2021/12/01 13:20:18;;;;;;;;;;;9.10;99.90;;;;;;5029999;28;19913;-70
2021/12/01 13:22:59;;;;;;;;;;;9.00;99.90;;;;;;5029397;28;20174;-70
2021/12/01 13:25:24;;;;;;;;;;;9.00;99.90;;;;;;5029272;28;19913;-69
2021/12/01 13:27:50;;;;;;;;;;;9.00;99.90;;;;;;5028875;28;20289;-71
2021/12/01 13:30:15;;;;;;;;;;;9.00;99.90;;;;;;5017514;28;19949;-66
2021/12/01 13:32:40;;;;;;;;;;;9.00;99.90;;;;;;5009430;28;19952;-70
2021/12/01 13:35:06;;;;;;;;;;;9.00;99.90;;;;;;5009209;28;19949;-69
2021/12/01 13:37:32;;;;;;;;;;;9.10;99.90;;;;;;5016092;28;19913;-69
2021/12/01 13:39:57;;;;;;;;;;;9.00;99.90;;;;;;5021081;28;19909;-70
2021/12/01 13:42:24;;;;;;;;;;;9.00;99.90;;;;;;5029532;28;20416;-69
2021/12/01 13:44:50;;;;;;;;;;;9.00;99.90;;;;;;5030563;28;20382;-70
2021/12/01 13:47:17;;;;;;;;;;;9.10;99.90;;;;;;5029821;28;19913;-69
2021/12/01 13:49:49;;;;;;;;;;;9.00;99.90;;;;;;5028896;28;19914;-67
2021/12/01 13:52:23;;;;;;;;;;;9.00;99.90;;;;;;5044682;28;19971;-70
2021/12/01 13:54:49;;;;;;;;;;;9.00;99.90;;;;;;5030583;28;20393;-69
2021/12/01 13:57:14;;;;;;;;;;;9.00;99.90;;;;;;5033646;28;19909;-67
2021/12/01 13:59:40;;;;;;;;;;;9.00;99.90;;;;;;5034130;28;19909;-68
2021/12/01 14:02:05;;;;;;;;;;;8.90;99.90;;;;;;5035655;28;19909;-69
2021/12/01 14:04:31;;;;;;;;;;;8.80;99.90;;;;;;5024118;28;20689;-68
2021/12/01 14:06:57;;;;;;;;;;;8.80;99.90;;;;;;5023372;28;19910;-68
2021/12/01 14:09:24;;;;;;;;;;;8.80;99.90;;;;;;5033110;28;20369;-68
2021/12/01 14:11:51;;;;;;;;;;;8.70;99.90;;;;;;5033325;28;19920;-69
2021/12/01 14:14:18;;;;;;;;;;;8.70;99.90;;;;;;5033919;28;19955;-68
2021/12/01 14:16:56;;;;;;;;;;;8.70;99.90;;;;;;5033496;28;19959;-68
2021/12/01 14:19:29;;;;;;;;;;;8.70;99.90;;;;;;5035042;28;19913;-69
2021/12/01 14:21:55;;;;;;;;;;;8.70;99.90;;;;;;5044005;28;19952;-70
2021/12/01 14:24:30;;;;;;;;;;;8.70;99.90;;;;;;5051739;28;19932;-70
2021/12/01 14:27:02;;;;;;;;;;;8.70;99.90;;;;;;5053992;28;19911;-70
2021/12/01 14:29:29;;;;;;;;;;;8.60;99.90;;;;;;5045487;28;19913;-69
2021/12/01 14:32:16;;;;;;;;;;;8.70;99.90;;;;;;5017148;28;19949;-70
2021/12/01 14:34:42;;;;;;;;;;;8.60;99.90;;;;;;5017354;28;20285;-69
2021/12/01 14:37:09;;;;;;;;;;;8.70;99.90;;;;;;5013014;28;19916;-68
2021/12/01 14:39:35;;;;;;;;;;;8.70;99.90;;;;;;5013126;28;19983;-70